Portada
METAR-TAF:

METAR-TAF

Aeropuertos :

Bad Vöslau, Austria

latitud: 47-57-52N, longitud: 016-15-34E, altitud: 233 m

Observación

El informe se hizo hace 9 horas y 58 minutos, a las 17:00 UTC
Viento 10 kt del oeste
Temperatura 6°C
Humedad 52%
Presión

METAR: LOAV 261700Z 28010KT 40KM FEW040CU SCT100AC BKN140AC 06/M03

Hora: 03:58 (02:58 UTC)

Pronóstico

El informe se hizo hace 15 horas y 33 minutos, a las 11:25 UTC
Pronóstico válido del 26 a las 12 UTC al 26 a las 21 UTC
Viento 10 kt del oeste-noroeste
Visibilidad 10 km o más
Escasas nubes a una altura de 3000 ft
Nubes dispersas a una altura de 6000 ft
Cielo nuboso a una altura de 9000 ft
Temporalmente
del 26 a las 12 UTC al 26 a las 18 UTC
Viento 20 kt del noroeste con ráfagas de 33 kt

TAF: LOAV 261125Z 2612/2621 30010KT 9999 FEW030 SCT060 BKN090 TEMPO 2612/2618 31020G33KT

Observaciones y pronósticos meteorológicos de más de 4000 aeropuertos (mensajes METAR y TAF).

Los puntos amarillos y rojos representan las estaciones disponibles.

Ponga el ratón en el punto deseado para ver el nombre de la estación.

Haga clic para ver las observaciones y los pronósticos meteorológicos.

Para cambiar el mapa : haga clic en los botones verdes con una cruz de color negro para hacer un zoom, en el botón verde con un guión para alejar o en las flechas verdes para mapas adyacentes.


METAR-TAF: